createdAt,value
2024-05-09T00:00:38.767Z,1005.81
2024-05-09T00:01:31.961Z,1005.83
2024-05-09T00:02:31.969Z,1005.85
2024-05-09T00:03:31.935Z,1005.84
2024-05-09T00:04:31.873Z,1005.92
2024-05-09T00:05:31.926Z,1005.92
2024-05-09T00:06:31.813Z,1005.95
2024-05-09T00:07:31.796Z,1005.92
2024-05-09T00:08:31.940Z,1005.89
2024-05-09T00:09:31.773Z,1005.95
2024-05-09T00:10:36.154Z,1005.88
2024-05-09T00:11:33.837Z,1005.89
2024-05-09T00:12:31.755Z,1005.89
2024-05-09T00:13:31.722Z,1005.84
2024-05-09T00:14:31.848Z,1005.86
2024-05-09T00:15:31.693Z,1005.83
2024-05-09T00:16:31.681Z,1005.79
2024-05-09T00:17:32.089Z,1005.80
2024-05-09T00:18:31.748Z,1005.76
2024-05-09T00:19:32.016Z,1005.83
2024-05-09T00:20:38.004Z,1005.83
2024-05-09T00:21:33.629Z,1005.86
2024-05-09T00:22:31.603Z,1005.86
2024-05-09T00:23:31.716Z,1005.85
2024-05-09T00:24:31.583Z,1005.88
2024-05-09T00:25:31.567Z,1005.90
2024-05-09T00:26:31.586Z,1005.86
2024-05-09T00:27:31.566Z,1005.91
2024-05-09T00:28:31.540Z,1005.87
2024-05-09T00:29:31.600Z,1005.90
2024-05-09T00:30:35.252Z,1005.91
2024-05-09T00:31:31.496Z,1005.87
2024-05-09T00:32:31.659Z,1005.94
2024-05-09T00:33:31.688Z,1005.91
2024-05-09T00:34:31.624Z,1005.86
2024-05-09T00:35:31.596Z,1005.86
2024-05-09T00:36:31.421Z,1005.88
2024-05-09T00:37:31.419Z,1005.90
2024-05-09T00:38:31.633Z,1005.86
2024-05-09T00:39:31.383Z,1005.84
2024-05-09T00:40:38.674Z,1005.83
2024-05-09T00:41:31.419Z,1005.87
2024-05-09T00:42:31.343Z,1005.85
2024-05-09T00:43:31.339Z,1005.81
2024-05-09T00:44:31.378Z,1005.84
2024-05-09T00:45:31.300Z,1005.87
2024-05-09T00:46:31.287Z,1005.88
2024-05-09T00:47:31.504Z,1005.88
2024-05-09T00:48:31.555Z,1005.94
2024-05-09T00:49:31.354Z,1005.91
2024-05-09T00:50:36.193Z,1005.87
2024-05-09T00:51:31.222Z,1005.88
2024-05-09T00:52:31.222Z,1005.84
2024-05-09T00:53:31.465Z,1005.84
2024-05-09T00:54:31.185Z,1005.81
2024-05-09T00:55:31.169Z,1005.85
2024-05-09T00:56:31.198Z,1005.83
2024-05-09T00:57:31.143Z,1005.76
2024-05-09T00:58:31.135Z,1005.82
2024-05-09T00:59:31.202Z,1005.84
2024-05-09T01:00:38.113Z,1005.84
2024-05-09T01:01:33.164Z,1005.81
2024-05-09T01:02:31.137Z,1005.86
2024-05-09T01:03:31.254Z,1005.81
2024-05-09T01:04:31.115Z,1005.81
2024-05-09T01:05:31.062Z,1005.86
2024-05-09T01:06:31.023Z,1005.79
2024-05-09T01:07:31.012Z,1005.84
2024-05-09T01:08:31.202Z,1005.82
2024-05-09T01:09:30.986Z,1005.80
2024-05-09T01:10:34.218Z,1005.85
2024-05-09T01:11:31.007Z,1005.84
2024-05-09T01:12:31.079Z,1005.81
2024-05-09T01:13:30.930Z,1005.86
2024-05-09T01:14:30.956Z,1005.82
2024-05-09T01:15:30.931Z,1005.89
2024-05-09T01:16:30.899Z,1005.89
2024-05-09T01:17:31.203Z,1005.93
2024-05-09T01:18:31.010Z,1005.84
2024-05-09T01:19:31.035Z,1005.88
2024-05-09T01:20:37.533Z,1005.90
2024-05-09T01:21:30.829Z,1005.83
2024-05-09T01:22:30.822Z,1005.90
2024-05-09T01:23:30.977Z,1005.86
2024-05-09T01:24:30.807Z,1005.88
2024-05-09T01:25:30.807Z,1005.90
2024-05-09T01:26:30.893Z,1005.81
2024-05-09T01:27:30.766Z,1005.79
2024-05-09T01:28:30.747Z,1005.82
2024-05-09T01:29:30.811Z,1005.86
2024-05-09T01:30:34.570Z,1005.79
2024-05-09T01:31:32.758Z,1005.76
2024-05-09T01:32:30.876Z,1005.83
2024-05-09T01:33:30.994Z,1005.83
2024-05-09T01:34:30.665Z,1005.83
2024-05-09T01:35:30.783Z,1005.82
2024-05-09T01:36:30.635Z,1005.84
2024-05-09T01:37:30.619Z,1005.80
2024-05-09T01:38:30.747Z,1005.83
2024-05-09T01:39:30.605Z,1005.87
2024-05-09T01:41:30.658Z,1005.84
2024-05-09T01:42:30.559Z,1005.88
2024-05-09T01:43:30.539Z,1005.87
2024-05-09T01:44:30.593Z,1005.84
2024-05-09T01:45:30.524Z,1005.88
2024-05-09T01:46:30.515Z,1005.85
2024-05-09T01:47:30.912Z,1005.91
2024-05-09T01:48:30.586Z,1005.86
2024-05-09T01:49:30.614Z,1005.87
2024-05-09T01:50:37.931Z,1005.88
2024-05-09T01:51:32.437Z,1005.91
2024-05-09T01:52:30.483Z,1005.86
2024-05-09T01:53:30.586Z,1005.87
2024-05-09T01:54:30.402Z,1005.81
2024-05-09T01:55:30.392Z,1005.81
2024-05-09T01:56:30.469Z,1005.89
2024-05-09T01:57:30.358Z,1005.87
2024-05-09T01:58:30.349Z,1005.91
2024-05-09T01:59:30.471Z,1005.88
2024-05-09T02:00:38.090Z,1005.84
2024-05-09T02:01:55.373Z,1005.89
2024-05-09T02:02:30.344Z,1005.86
2024-05-09T02:03:30.464Z,1005.92
2024-05-09T02:04:30.342Z,1005.88
2024-05-09T02:05:30.370Z,1005.87
2024-05-09T02:06:30.254Z,1005.87
2024-05-09T02:07:30.243Z,1005.90
2024-05-09T02:08:30.304Z,1005.93
2024-05-09T02:09:30.250Z,1005.89
2024-05-09T02:10:32.842Z,1005.96
2024-05-09T02:11:30.271Z,1005.88
2024-05-09T02:12:30.225Z,1005.88
2024-05-09T02:13:30.151Z,1005.87
2024-05-09T02:14:30.196Z,1005.90
2024-05-09T02:15:30.129Z,1005.90
2024-05-09T02:16:30.123Z,1005.87
2024-05-09T02:17:30.257Z,1005.87
2024-05-09T02:18:30.135Z,1005.86
2024-05-09T02:19:30.106Z,1005.85
2024-05-09T02:20:35.779Z,1005.76
2024-05-09T02:21:30.050Z,1005.79
2024-05-09T02:22:30.039Z,1005.81
2024-05-09T02:23:30.018Z,1005.85
2024-05-09T02:24:30.018Z,1005.86
2024-05-09T02:25:30.004Z,1005.86
2024-05-09T02:26:30.081Z,1005.86
2024-05-09T02:27:29.967Z,1005.87
2024-05-09T02:28:29.958Z,1005.89
2024-05-09T02:29:30.063Z,1005.83
2024-05-09T02:30:38.106Z,1005.87
2024-05-09T02:31:31.934Z,1005.89
2024-05-09T02:32:30.105Z,1005.84
2024-05-09T02:33:29.972Z,1005.82
2024-05-09T02:34:29.915Z,1005.87
2024-05-09T02:35:30.000Z,1005.83
2024-05-09T02:36:29.851Z,1005.88
2024-05-09T02:37:29.859Z,1005.99
2024-05-09T02:38:29.917Z,1005.87
2024-05-09T02:39:29.813Z,1005.86
2024-05-09T02:40:36.439Z,1005.83
2024-05-09T02:41:29.863Z,1005.86
2024-05-09T02:42:29.776Z,1005.87
2024-05-09T02:43:29.760Z,1005.88
2024-05-09T02:44:29.889Z,1005.88
2024-05-09T02:45:29.737Z,1005.87
2024-05-09T02:46:29.724Z,1005.88
2024-05-09T02:47:29.950Z,1005.90
2024-05-09T02:48:29.821Z,1005.91
2024-05-09T02:49:29.947Z,1005.92
2024-05-09T02:50:36.849Z,1005.85
2024-05-09T02:51:31.668Z,1005.88
2024-05-09T02:52:29.646Z,1005.90
2024-05-09T02:53:29.631Z,1005.88
2024-05-09T02:54:29.619Z,1005.88
2024-05-09T02:55:29.602Z,1005.90
2024-05-09T02:56:29.669Z,1005.87
2024-05-09T02:57:29.586Z,1005.88
2024-05-09T02:58:29.572Z,1005.85
2024-05-09T02:59:29.673Z,1005.96
2024-05-09T03:00:37.386Z,1005.98
2024-05-09T03:01:29.639Z,1005.99
2024-05-09T03:02:29.597Z,1005.99
2024-05-09T03:03:29.720Z,1005.98
2024-05-09T03:04:29.574Z,1006.06
2024-05-09T03:05:29.580Z,1006.07
2024-05-09T03:06:29.466Z,1006.00
2024-05-09T03:07:29.471Z,1006.02
2024-05-09T03:08:29.455Z,1005.98
2024-05-09T03:09:29.419Z,1006.02
2024-05-09T03:10:35.461Z,1005.94
2024-05-09T03:11:29.545Z,1006.01
2024-05-09T03:12:29.443Z,1005.98
2024-05-09T03:13:29.370Z,1005.88
2024-05-09T03:14:29.411Z,1005.90
2024-05-09T03:15:29.358Z,1005.92
2024-05-09T03:16:29.336Z,1005.87
2024-05-09T03:17:29.459Z,1005.88
2024-05-09T03:18:29.519Z,1005.94
2024-05-09T03:19:29.449Z,1005.90
2024-05-09T03:20:33.638Z,1005.93
2024-05-09T03:21:29.267Z,1005.89
2024-05-09T03:22:29.276Z,1005.85
2024-05-09T03:23:29.306Z,1005.89
2024-05-09T03:24:29.224Z,1005.95
2024-05-09T03:25:29.247Z,1005.98
2024-05-09T03:26:29.298Z,1005.95
2024-05-09T03:27:29.192Z,1005.98
2024-05-09T03:28:29.177Z,1006.00
2024-05-09T03:29:29.198Z,1006.00
2024-05-09T03:30:36.357Z,1006.02
2024-05-09T03:31:29.138Z,1006.02
2024-05-09T03:32:29.287Z,1005.98
2024-05-09T03:33:29.452Z,1005.93
2024-05-09T03:34:29.128Z,1005.92
2024-05-09T03:35:29.283Z,1005.91
2024-05-09T03:36:29.074Z,1005.94
2024-05-09T03:37:29.067Z,1005.98
2024-05-09T03:38:29.145Z,1005.96
2024-05-09T03:39:29.059Z,1005.92
2024-05-09T03:40:30.928Z,1005.95
2024-05-09T03:41:29.106Z,1005.92
2024-05-09T03:42:29.009Z,1005.95
2024-05-09T03:43:28.979Z,1005.95
2024-05-09T03:44:29.070Z,1005.92
2024-05-09T03:45:28.968Z,1005.87
2024-05-09T03:46:28.942Z,1005.89
2024-05-09T03:47:29.275Z,1005.92
2024-05-09T03:48:29.050Z,1005.89
2024-05-09T03:49:28.973Z,1005.87
2024-05-09T03:50:33.777Z,1005.88
2024-05-09T03:51:28.882Z,1005.83
2024-05-09T03:52:28.874Z,1005.89
2024-05-09T03:53:29.019Z,1005.87
2024-05-09T03:54:28.836Z,1005.83
2024-05-09T03:55:28.902Z,1005.91
2024-05-09T03:56:28.859Z,1005.90
2024-05-09T03:57:28.793Z,1005.87
2024-05-09T03:58:28.794Z,1005.90
2024-05-09T03:59:28.862Z,1005.92
2024-05-09T04:00:35.314Z,1005.94
2024-05-09T04:01:28.804Z,1005.94
2024-05-09T04:02:28.809Z,1005.98
2024-05-09T04:03:29.047Z,1006.02
2024-05-09T04:04:28.822Z,1006.00
2024-05-09T04:05:28.700Z,1006.01
2024-05-09T04:06:28.676Z,1006.00
2024-05-09T04:07:28.663Z,1005.97
2024-05-09T04:08:28.674Z,1006.03
2024-05-09T04:09:28.638Z,1005.96
2024-05-09T04:10:33.300Z,1005.99
2024-05-09T04:11:28.765Z,1006.01
2024-05-09T04:12:28.649Z,1005.96
2024-05-09T04:13:28.587Z,1005.94
2024-05-09T04:14:28.678Z,1005.96
2024-05-09T04:15:28.558Z,1005.99
2024-05-09T04:16:28.551Z,1006.01
2024-05-09T04:17:28.806Z,1005.99
2024-05-09T04:18:28.641Z,1005.99
2024-05-09T04:19:28.681Z,1006.02
2024-05-09T04:20:36.354Z,1006.05
2024-05-09T04:21:28.478Z,1006.02
2024-05-09T04:22:28.484Z,1006.05
2024-05-09T04:24:28.441Z,1006.04
2024-05-09T04:25:28.426Z,1006.08
2024-05-09T04:26:28.478Z,1006.11
2024-05-09T04:27:28.420Z,1006.13
2024-05-09T04:28:28.415Z,1006.10
2024-05-09T04:29:28.704Z,1006.04
2024-05-09T04:30:35.973Z,1006.09
2024-05-09T04:31:28.366Z,1006.04
2024-05-09T04:32:28.574Z,1006.06
2024-05-09T04:33:28.487Z,1006.08
2024-05-09T04:34:28.468Z,1006.09
2024-05-09T04:35:28.508Z,1006.06
2024-05-09T04:36:28.291Z,1006.03
2024-05-09T04:37:28.278Z,1006.06
2024-05-09T04:38:28.294Z,1006.07
2024-05-09T04:39:28.257Z,1006.06
2024-05-09T04:40:33.517Z,1006.10
2024-05-09T04:41:28.309Z,1006.13
2024-05-09T04:42:28.225Z,1006.16
2024-05-09T04:43:28.216Z,1006.11
2024-05-09T04:44:28.360Z,1006.14
2024-05-09T04:45:28.181Z,1006.13
2024-05-09T04:46:28.171Z,1006.12
2024-05-09T04:47:28.453Z,1006.14
2024-05-09T04:48:28.499Z,1006.13
2024-05-09T04:49:28.197Z,1006.15
2024-05-09T04:50:35.715Z,1006.17
2024-05-09T04:51:30.101Z,1006.11
2024-05-09T04:52:28.084Z,1006.18
2024-05-09T04:53:28.152Z,1006.18
2024-05-09T04:54:34.316Z,1006.20
2024-05-09T04:55:30.054Z,1006.18
2024-05-09T04:56:28.102Z,1006.19
2024-05-09T04:57:28.021Z,1006.20
2024-05-09T04:58:28.005Z,1006.21
2024-05-09T04:59:28.180Z,1006.19
2024-05-09T05:00:35.316Z,1006.19
2024-05-09T05:01:30.169Z,1006.18
2024-05-09T05:02:28.039Z,1006.15
2024-05-09T05:03:28.053Z,1006.14
2024-05-09T05:04:27.946Z,1006.16
2024-05-09T05:05:27.951Z,1006.12
2024-05-09T05:06:27.903Z,1006.13
2024-05-09T05:07:27.894Z,1006.14
2024-05-09T05:08:27.906Z,1006.12
2024-05-09T05:09:27.879Z,1006.19
2024-05-09T05:10:33.669Z,1006.22
2024-05-09T05:11:27.853Z,1006.21
2024-05-09T05:12:28.005Z,1006.24
2024-05-09T05:13:27.820Z,1006.23
2024-05-09T05:14:27.937Z,1006.30
2024-05-09T05:15:27.806Z,1006.28
2024-05-09T05:16:27.778Z,1006.25
2024-05-09T05:17:27.919Z,1006.25
2024-05-09T05:18:28.292Z,1006.27
2024-05-09T05:19:28.047Z,1006.32
2024-05-09T05:20:33.247Z,1006.26
2024-05-09T05:21:29.791Z,1006.27
2024-05-09T05:22:27.698Z,1006.31
2024-05-09T05:23:27.715Z,1006.31
2024-05-09T05:24:27.673Z,1006.27
2024-05-09T05:25:27.660Z,1006.32
2024-05-09T05:26:27.692Z,1006.33
2024-05-09T05:27:27.633Z,1006.29
2024-05-09T05:28:27.613Z,1006.30
2024-05-09T05:29:27.668Z,1006.31
2024-05-09T05:30:32.589Z,1006.33
2024-05-09T05:31:29.686Z,1006.29
2024-05-09T05:32:27.682Z,1006.27
2024-05-09T05:33:27.749Z,1006.25
2024-05-09T05:34:27.532Z,1006.30
2024-05-09T05:35:27.566Z,1006.34
2024-05-09T05:36:27.524Z,1006.32
2024-05-09T05:37:27.500Z,1006.30
2024-05-09T05:38:28.590Z,1006.30
2024-05-09T05:39:27.478Z,1006.26
2024-05-09T05:40:33.487Z,1006.32
2024-05-09T05:41:29.477Z,1006.33
2024-05-09T05:42:27.422Z,1006.33
2024-05-09T05:43:27.414Z,1006.30
2024-05-09T05:44:27.617Z,1006.40
2024-05-09T05:45:27.389Z,1006.33
2024-05-09T05:46:27.372Z,1006.36
2024-05-09T05:47:27.508Z,1006.33
2024-05-09T05:48:27.520Z,1006.40
2024-05-09T05:49:27.366Z,1006.37
2024-05-09T05:50:34.061Z,1006.38
2024-05-09T05:51:27.311Z,1006.36
2024-05-09T05:52:27.289Z,1006.33
2024-05-09T05:53:27.314Z,1006.38
2024-05-09T05:54:27.266Z,1006.37
2024-05-09T05:55:27.254Z,1006.37
2024-05-09T05:56:27.247Z,1006.39
2024-05-09T05:57:27.233Z,1006.38
2024-05-09T05:58:27.210Z,1006.32
2024-05-09T05:59:27.246Z,1006.33
2024-05-09T06:00:34.417Z,1006.35
2024-05-09T06:01:27.218Z,1006.40
2024-05-09T06:02:27.227Z,1006.45
2024-05-09T06:03:27.193Z,1006.46
2024-05-09T06:04:27.195Z,1006.47
2024-05-09T06:05:27.732Z,1006.45
2024-05-09T06:06:27.111Z,1006.47
2024-05-09T06:07:27.095Z,1006.44
2024-05-09T06:08:30.208Z,1006.46
2024-05-09T06:09:27.077Z,1006.44
2024-05-09T06:10:35.072Z,1006.44
2024-05-09T06:11:29.123Z,1006.46
2024-05-09T06:12:27.118Z,1006.40
2024-05-09T06:13:27.015Z,1006.45
2024-05-09T06:14:27.172Z,1006.41
2024-05-09T06:15:26.999Z,1006.40
2024-05-09T06:16:26.976Z,1006.47
2024-05-09T06:17:27.072Z,1006.42
2024-05-09T06:18:27.173Z,1006.37
2024-05-09T06:19:27.122Z,1006.39
2024-05-09T06:20:34.390Z,1006.34
2024-05-09T06:21:26.961Z,1006.37
2024-05-09T06:22:26.897Z,1006.40
2024-05-09T06:23:26.952Z,1006.41
2024-05-09T06:24:26.867Z,1006.41
2024-05-09T06:25:26.865Z,1006.42
2024-05-09T06:26:26.958Z,1006.41
2024-05-09T06:27:26.852Z,1006.41
2024-05-09T06:28:26.814Z,1006.38
2024-05-09T06:29:27.035Z,1006.37
2024-05-09T06:30:35.199Z,1006.37
2024-05-09T06:31:26.786Z,1006.38
2024-05-09T06:32:26.957Z,1006.38
2024-05-09T06:33:26.996Z,1006.46
2024-05-09T06:34:26.965Z,1006.43
2024-05-09T06:35:26.780Z,1006.34
2024-05-09T06:36:26.713Z,1006.45
2024-05-09T06:37:26.699Z,1006.39
2024-05-09T06:38:26.740Z,1006.38
2024-05-09T06:39:26.690Z,1006.43
2024-05-09T06:40:35.761Z,1006.39
2024-05-09T06:41:28.745Z,1006.41
2024-05-09T06:42:26.634Z,1006.39
2024-05-09T06:43:26.619Z,1006.45
2024-05-09T06:44:26.660Z,1006.36
2024-05-09T06:45:26.590Z,1006.44
2024-05-09T06:46:26.595Z,1006.39
2024-05-09T06:47:26.758Z,1006.43
2024-05-09T06:48:26.783Z,1006.44
2024-05-09T06:49:26.661Z,1006.45
2024-05-09T06:50:28.731Z,1006.41
2024-05-09T06:51:26.531Z,1006.42
2024-05-09T06:52:26.515Z,1006.45
2024-05-09T06:53:26.567Z,1006.43
2024-05-09T06:54:26.505Z,1006.42
2024-05-09T06:55:26.469Z,1006.39
2024-05-09T06:56:26.645Z,1006.42
2024-05-09T06:57:26.447Z,1006.46
2024-05-09T06:58:26.424Z,1006.45
2024-05-09T06:59:26.452Z,1006.42
2024-05-09T07:00:34.782Z,1006.43
2024-05-09T07:01:28.471Z,1006.44
2024-05-09T07:02:26.475Z,1006.41
2024-05-09T07:03:26.647Z,1006.47
2024-05-09T07:04:26.681Z,1006.47
2024-05-09T07:06:26.323Z,1006.46
2024-05-09T07:07:26.345Z,1006.48
2024-05-09T07:08:26.314Z,1006.46
2024-05-09T07:09:26.291Z,1006.48
2024-05-09T07:10:32.806Z,1006.44
2024-05-09T07:11:26.536Z,1006.46
2024-05-09T07:12:26.406Z,1006.39
2024-05-09T07:13:26.228Z,1006.47
2024-05-09T07:14:26.302Z,1006.38
2024-05-09T07:15:26.202Z,1006.37
2024-05-09T07:16:26.184Z,1006.40
2024-05-09T07:17:26.288Z,1006.37
2024-05-09T07:18:26.308Z,1006.36
2024-05-09T07:19:26.189Z,1006.37
2024-05-09T07:20:33.824Z,1006.38
2024-05-09T07:21:26.175Z,1006.36
2024-05-09T07:22:26.107Z,1006.34
2024-05-09T07:23:26.210Z,1006.35
2024-05-09T07:24:26.083Z,1006.36
2024-05-09T07:25:26.066Z,1006.36
2024-05-09T07:26:26.067Z,1006.38
2024-05-09T07:27:26.041Z,1006.34
2024-05-09T07:28:26.026Z,1006.30
2024-05-09T07:29:26.092Z,1006.32
2024-05-09T07:30:30.912Z,1006.28
2024-05-09T07:31:25.994Z,1006.32
2024-05-09T07:32:26.153Z,1006.29
2024-05-09T07:33:26.236Z,1006.25
2024-05-09T07:34:26.080Z,1006.24
2024-05-09T07:35:26.124Z,1006.21
2024-05-09T07:36:25.923Z,1006.22
2024-05-09T07:37:25.914Z,1006.25
2024-05-09T07:38:25.916Z,1006.17
2024-05-09T07:39:25.910Z,1006.23
2024-05-09T07:40:33.119Z,1006.20
2024-05-09T07:41:27.889Z,1006.13
2024-05-09T07:42:25.849Z,1006.09
2024-05-09T07:43:25.837Z,1006.15
2024-05-09T07:44:25.861Z,1006.19
2024-05-09T07:45:43.306Z,1006.19
2024-05-09T07:47:14.612Z,1006.15
2024-05-09T07:50:00.708Z,1006.09
2024-05-09T07:54:25.847Z,1006.07
2024-05-09T07:55:25.873Z,1006.05
2024-05-09T07:56:26.293Z,1006.04
2024-05-09T07:57:25.706Z,1006.03
2024-05-09T07:58:25.641Z,1005.97
2024-05-09T07:59:25.638Z,1006.05
2024-05-09T08:00:31.070Z,1006.01
2024-05-09T08:01:27.853Z,1006.08
2024-05-09T08:02:25.732Z,1005.96
2024-05-09T08:03:25.643Z,1005.99
2024-05-09T08:04:26.792Z,1005.95
2024-05-09T08:05:25.701Z,1005.91
2024-05-09T08:06:25.557Z,1005.96
2024-05-09T08:07:25.521Z,1005.92
2024-05-09T08:08:25.510Z,1005.92
2024-05-09T08:09:25.516Z,1005.93
2024-05-09T08:10:28.896Z,1005.91
2024-05-09T08:11:25.569Z,1005.94
2024-05-09T08:12:25.455Z,1005.87
2024-05-09T08:13:25.444Z,1005.85
2024-05-09T08:14:25.437Z,1005.88
2024-05-09T08:15:25.421Z,1005.77
2024-05-09T08:16:25.494Z,1005.83
2024-05-09T08:17:25.517Z,1005.82
2024-05-09T08:18:25.512Z,1005.81
2024-05-09T08:19:25.408Z,1005.84
2024-05-09T08:20:31.101Z,1005.81
2024-05-09T08:21:25.347Z,1005.80
2024-05-09T08:22:25.333Z,1005.77
2024-05-09T08:23:25.325Z,1005.80
2024-05-09T08:25:25.352Z,1005.79
2024-05-09T08:26:25.278Z,1005.81
2024-05-09T08:27:25.292Z,1005.82
2024-05-09T08:28:25.313Z,1005.85
2024-05-09T08:29:25.245Z,1005.85
2024-05-09T08:30:32.633Z,1005.83
2024-05-09T08:31:25.263Z,1005.82
2024-05-09T08:32:25.339Z,1005.82
2024-05-09T08:33:25.388Z,1005.74
2024-05-09T08:34:25.364Z,1005.74
2024-05-09T08:35:25.178Z,1005.75
2024-05-09T08:36:25.165Z,1005.75
2024-05-09T08:37:29.437Z,1005.76
2024-05-09T08:38:27.134Z,1005.78
2024-05-09T08:39:25.123Z,1005.69
2024-05-09T08:40:32.877Z,1005.65
2024-05-09T08:41:27.109Z,1005.69
2024-05-09T08:42:25.084Z,1005.69
2024-05-09T08:43:25.173Z,1005.68
2024-05-09T08:44:25.067Z,1005.66
2024-05-09T08:45:25.138Z,1005.66
2024-05-09T08:46:25.127Z,1005.59
2024-05-09T08:47:25.187Z,1005.64
2024-05-09T08:48:25.330Z,1005.67
2024-05-09T08:49:25.160Z,1005.63
2024-05-09T08:50:32.193Z,1005.63
2024-05-09T08:51:27.148Z,1005.65
2024-05-09T08:52:24.961Z,1005.62
2024-05-09T08:53:24.961Z,1005.57
2024-05-09T08:54:24.954Z,1005.65
2024-05-09T08:55:24.978Z,1005.58
2024-05-09T08:56:24.911Z,1005.59
2024-05-09T08:57:24.955Z,1005.61
2024-05-09T08:58:24.930Z,1005.56
2024-05-09T08:59:24.902Z,1005.53
2024-05-09T09:00:33.841Z,1005.52
2024-05-09T09:01:24.907Z,1005.54
2024-05-09T09:02:25.038Z,1005.53
2024-05-09T09:03:24.980Z,1005.48
2024-05-09T09:04:24.972Z,1005.53
2024-05-09T09:05:25.035Z,1005.41
2024-05-09T09:06:24.800Z,1005.45
2024-05-09T09:07:24.853Z,1005.42
2024-05-09T09:08:24.822Z,1005.45
2024-05-09T09:09:24.752Z,1005.47
2024-05-09T09:10:31.038Z,1005.42
2024-05-09T09:11:24.754Z,1005.41
2024-05-09T09:12:24.719Z,1005.44
2024-05-09T09:13:24.736Z,1005.42
2024-05-09T09:14:24.706Z,1005.36
2024-05-09T09:15:24.706Z,1005.41
2024-05-09T09:16:24.882Z,1005.42
2024-05-09T09:17:24.751Z,1005.41
2024-05-09T09:18:24.716Z,1005.46
2024-05-09T09:19:24.782Z,1005.44
2024-05-09T09:20:29.547Z,1005.38
2024-05-09T09:21:26.779Z,1005.42
2024-05-09T09:22:24.600Z,1005.43
2024-05-09T09:23:24.588Z,1005.36
2024-05-09T09:24:24.572Z,1005.41
2024-05-09T09:25:24.556Z,1005.43
2024-05-09T09:26:24.545Z,1005.42
2024-05-09T09:27:24.527Z,1005.41
2024-05-09T09:28:24.521Z,1005.38
2024-05-09T09:29:24.508Z,1005.37
2024-05-09T09:30:34.620Z,1005.36
2024-05-09T09:31:26.632Z,1005.35
2024-05-09T09:32:24.547Z,1005.26
2024-05-09T09:33:24.574Z,1005.30
2024-05-09T09:34:24.730Z,1005.31
2024-05-09T09:35:24.430Z,1005.31
2024-05-09T09:36:24.426Z,1005.23
2024-05-09T09:37:24.410Z,1005.27
2024-05-09T09:38:24.408Z,1005.20
2024-05-09T09:39:24.385Z,1005.25
2024-05-09T09:40:31.061Z,1005.24
2024-05-09T09:41:26.404Z,1005.20
2024-05-09T09:42:24.353Z,1005.19
2024-05-09T09:43:24.460Z,1005.20
2024-05-09T09:44:24.330Z,1005.14
2024-05-09T09:45:24.314Z,1005.15
2024-05-09T09:46:24.523Z,1005.11
2024-05-09T09:47:24.394Z,1005.09
2024-05-09T09:48:24.354Z,1005.09
2024-05-09T09:49:24.284Z,1005.13
2024-05-09T09:50:31.743Z,1005.07
2024-05-09T09:51:26.237Z,1005.10
2024-05-09T09:52:24.320Z,1005.07
2024-05-09T09:53:24.224Z,1005.04
2024-05-09T09:54:24.210Z,1005.06
2024-05-09T09:55:24.296Z,1005.02
2024-05-09T09:56:24.186Z,1005.01
2024-05-09T09:57:24.172Z,1005.04
2024-05-09T09:58:24.282Z,1005.01
2024-05-09T09:59:24.147Z,1005.04
2024-05-09T10:00:30.138Z,1005.00
2024-05-09T10:01:24.203Z,1004.93
2024-05-09T10:02:24.240Z,1004.93
2024-05-09T10:03:24.323Z,1005.04
2024-05-09T10:04:24.161Z,1004.97
2024-05-09T10:05:24.557Z,1004.82
2024-05-09T10:06:24.068Z,1004.88
2024-05-09T10:07:24.082Z,1004.94
2024-05-09T10:08:24.076Z,1004.88
2024-05-09T10:09:24.032Z,1004.86
2024-05-09T10:10:31.392Z,1004.92
2024-05-09T10:11:24.050Z,1004.86
2024-05-09T10:12:24.090Z,1004.85
2024-05-09T10:13:24.031Z,1004.89
2024-05-09T10:14:23.985Z,1004.93
2024-05-09T10:15:23.966Z,1004.94
2024-05-09T10:16:24.361Z,1004.91
2024-05-09T10:17:23.982Z,1004.90
2024-05-09T10:18:24.223Z,1004.94
2024-05-09T10:19:24.070Z,1004.85
2024-05-09T10:20:28.063Z,1004.74
2024-05-09T10:21:25.896Z,1004.82
2024-05-09T10:22:23.932Z,1004.88
2024-05-09T10:23:23.929Z,1004.89
2024-05-09T10:24:23.857Z,1004.87
2024-05-09T10:25:24.280Z,1004.87
2024-05-09T10:26:23.832Z,1004.88
2024-05-09T10:27:23.822Z,1004.85
2024-05-09T10:28:23.859Z,1004.81
2024-05-09T10:29:23.799Z,1004.81
2024-05-09T10:30:29.637Z,1004.73
2024-05-09T10:31:25.817Z,1004.69
2024-05-09T10:32:23.866Z,1004.73
2024-05-09T10:33:23.870Z,1004.69
2024-05-09T10:34:24.262Z,1004.70
2024-05-09T10:35:23.752Z,1004.69
2024-05-09T10:36:23.719Z,1004.64
2024-05-09T10:37:23.732Z,1004.64
2024-05-09T10:38:23.697Z,1004.60
2024-05-09T10:39:23.687Z,1004.60
2024-05-09T10:40:29.327Z,1004.64
2024-05-09T10:41:25.656Z,1004.68
2024-05-09T10:42:23.654Z,1004.64
2024-05-09T10:43:23.655Z,1004.64
2024-05-09T10:44:23.658Z,1004.62
2024-05-09T10:45:23.618Z,1004.67
2024-05-09T10:46:23.694Z,1004.60
2024-05-09T10:47:23.689Z,1004.56
2024-05-09T10:48:23.659Z,1004.53
2024-05-09T10:49:23.659Z,1004.53
2024-05-09T10:50:28.574Z,1004.49
2024-05-09T10:51:25.555Z,1004.49
2024-05-09T10:52:23.552Z,1004.50
2024-05-09T10:53:23.522Z,1004.53
2024-05-09T10:54:23.508Z,1004.45
2024-05-09T10:55:23.631Z,1004.47
2024-05-09T10:56:23.488Z,1004.39
2024-05-09T10:57:23.476Z,1004.47
2024-05-09T10:58:23.509Z,1004.39
2024-05-09T10:59:23.445Z,1004.42
2024-05-09T11:00:30.274Z,1004.43
2024-05-09T11:01:23.515Z,1004.40
2024-05-09T11:02:23.647Z,1004.37
2024-05-09T11:03:23.417Z,1004.35
2024-05-09T11:04:23.485Z,1004.33
2024-05-09T11:05:23.601Z,1004.26
2024-05-09T11:06:23.373Z,1004.28
2024-05-09T11:07:23.425Z,1004.24
2024-05-09T11:08:23.357Z,1004.24
2024-05-09T11:09:23.331Z,1004.26
2024-05-09T11:10:27.881Z,1004.28
2024-05-09T11:11:23.338Z,1004.30
2024-05-09T11:12:24.998Z,1004.23
2024-05-09T11:13:23.296Z,1004.24
2024-05-09T11:14:23.282Z,1004.22
2024-05-09T11:15:23.273Z,1004.18
2024-05-09T11:16:23.362Z,1004.25
2024-05-09T11:17:23.382Z,1004.20
2024-05-09T11:18:24.942Z,1004.27
2024-05-09T11:19:23.359Z,1004.23
2024-05-09T11:20:29.403Z,1004.20
2024-05-09T11:21:23.214Z,1004.15
2024-05-09T11:22:23.234Z,1004.27
2024-05-09T11:23:23.194Z,1004.20
2024-05-09T11:24:23.164Z,1004.19
2024-05-09T11:25:23.225Z,1004.19
2024-05-09T11:26:23.207Z,1004.13
2024-05-09T11:27:23.192Z,1004.10
2024-05-09T11:28:23.292Z,1004.10
2024-05-09T11:29:23.101Z,1004.11
2024-05-09T11:30:29.786Z,1004.16
2024-05-09T11:31:25.311Z,1004.08
2024-05-09T11:32:23.080Z,1004.04
2024-05-09T11:33:23.089Z,1004.07
2024-05-09T11:34:23.170Z,1003.97
2024-05-09T11:35:23.029Z,1003.95
2024-05-09T11:36:23.046Z,1004.00
2024-05-09T11:37:23.031Z,1004.00
2024-05-09T11:38:23.042Z,1004.02
2024-05-09T11:39:23.009Z,1003.96
2024-05-09T11:40:25.801Z,1003.97
2024-05-09T11:41:22.965Z,1004.00
2024-05-09T11:42:22.955Z,1003.98
2024-05-09T11:43:23.126Z,1003.96
2024-05-09T11:44:22.939Z,1003.94
2024-05-09T11:45:22.916Z,1003.86
2024-05-09T11:46:22.973Z,1003.87
2024-05-09T11:47:23.011Z,1003.83
2024-05-09T11:48:23.020Z,1003.87
2024-05-09T11:49:26.310Z,1003.87
2024-05-09T11:50:29.684Z,1003.82
2024-05-09T11:51:22.844Z,1003.85
2024-05-09T11:52:22.867Z,1003.84
2024-05-09T11:53:22.892Z,1003.79
2024-05-09T11:54:22.806Z,1003.70
2024-05-09T11:55:26.756Z,1003.71
2024-05-09T11:56:22.798Z,1003.72
2024-05-09T11:57:22.770Z,1003.79
2024-05-09T11:58:23.097Z,1003.82
2024-05-09T11:59:22.746Z,1003.69
2024-05-09T12:00:29.425Z,1003.70
2024-05-09T12:01:27.473Z,1003.69
2024-05-09T12:02:22.913Z,1003.70
2024-05-09T12:03:22.768Z,1003.65
2024-05-09T12:04:22.882Z,1003.60
2024-05-09T12:05:22.886Z,1003.64
2024-05-09T12:06:22.656Z,1003.61
2024-05-09T12:07:22.759Z,1003.61
2024-05-09T12:08:22.642Z,1003.64
2024-05-09T12:09:22.622Z,1003.60
2024-05-09T12:10:29.897Z,1003.56
2024-05-09T12:11:24.747Z,1003.58
2024-05-09T12:12:22.594Z,1003.55
2024-05-09T12:13:22.692Z,1003.54
2024-05-09T12:14:22.571Z,1003.54
2024-05-09T12:15:22.549Z,1003.56